Time;durP1;ratioP1;P1;durP2;ratioP2;P2;SDS_P1;SDS_P2;PMS_P1;PMS_P2;Temp;Humidity;BMP_temperature;BMP_pressure;BME280_temperature;BME280_humidity;BME280_pressure;Samples;Min_cycle;Max_cycle;Signal;HPM_P1;HPM_P2
2022/08/28 00:01:08;;;;;;;;;;;;;;;20.12;65.33;100660.78;5094538;28;19962;-70
2022/08/28 00:04:11;;;;;;;;;;;;;;;20.05;65.90;100671.13;5084506;28;20430;-70
2022/08/28 00:07:14;;;;;;;;;;;;;;;20.01;66.62;100669.72;5074738;28;19922;-70
2022/08/28 00:10:19;;;;;;;;;;;;;;;19.90;67.28;100668.00;5074513;28;20377;-70
2022/08/28 00:13:24;;;;;;;;;;;;;;;19.87;67.47;100672.75;5074323;28;20379;-70
2022/08/28 00:16:29;;;;;;;;;;;;;;;19.91;67.72;100674.16;5074395;28;20005;-70
2022/08/28 00:19:33;;;;;;;;;;;;;;;19.95;67.47;100678.22;5073600;28;20023;-70
2022/08/28 00:22:37;;;;;;;;;;;;;;;19.94;67.27;100687.16;5092389;28;20009;-70
2022/08/28 00:25:40;;;;;;;;;;;;;;;19.92;67.28;100683.81;5094244;28;19941;-70
2022/08/28 00:28:43;;;;;;;;;;;;;;;19.88;67.87;100685.06;5094355;28;19978;-70
2022/08/28 00:31:46;;;;;;;;;;;;;;;19.86;68.19;100692.31;5093360;28;20016;-70
2022/08/28 00:34:50;;;;;;;;;;;;;;;19.84;68.37;100692.44;5093944;28;19923;-71
2022/08/28 00:37:56;;;;;;;;;;;;;;;19.86;68.05;100689.66;5094034;28;19927;-70
2022/08/28 00:41:01;;;;;;;;;;;;;;;19.80;67.54;100692.84;5094316;28;20337;-71
2022/08/28 00:44:15;;;;;;;;;;;;;;;19.78;67.45;100692.16;5094033;28;20406;-71
2022/08/28 00:47:18;;;;;;;;;;;;;;;19.80;67.34;100698.16;5093944;28;19923;-71
2022/08/28 00:50:24;;;;;;;;;;;;;;;19.78;67.71;100694.78;5093909;28;19949;-70
2022/08/28 00:53:28;;;;;;;;;;;;;;;19.82;67.63;100690.91;5093836;28;19974;-70
2022/08/28 00:56:31;;;;;;;;;;;;;;;19.81;67.24;100694.53;5093737;28;19955;-71
2022/08/28 00:59:35;;;;;;;;;;;;;;;19.71;67.07;100690.03;5093562;28;19973;-70
2022/08/28 01:02:41;;;;;;;;;;;;;;;19.69;67.03;100697.31;5093923;28;19923;-71
2022/08/28 01:05:46;;;;;;;;;;;;;;;19.69;67.01;100697.31;5093729;28;19927;-71
2022/08/28 01:08:52;;;;;;;;;;;;;;;19.59;67.41;100696.41;5093626;28;20425;-71
2022/08/28 01:12:03;;;;;;;;;;;;;;;19.60;67.08;100706.03;5093423;28;19993;-70
2022/08/28 01:15:15;;;;;;;;;;;;;;;19.62;66.85;100700.56;5093394;28;19969;-71
2022/08/28 01:18:18;;;;;;;;;;;;;;;19.66;66.38;100702.88;5093208;28;19927;-71
2022/08/28 01:21:35;;;;;;;;;;;;;;;19.64;66.34;100699.50;5093031;28;19924;-71
2022/08/28 01:24:39;;;;;;;;;;;;;;;19.58;67.32;100709.78;5092984;28;19923;-71
2022/08/28 01:27:42;;;;;;;;;;;;;;;19.61;67.47;100699.75;5093169;28;20066;-71
2022/08/28 01:30:47;;;;;;;;;;;;;;;19.61;67.35;100699.75;5092637;28;20045;-71
2022/08/28 01:33:50;;;;;;;;;;;;;;;19.52;67.04;100696.06;5093031;28;19923;-71
2022/08/28 01:36:54;;;;;;;;;;;;;;;19.45;67.33;100696.75;5092825;28;19927;-71
2022/08/28 01:39:57;;;;;;;;;;;;;;;19.45;67.67;100696.75;5092798;28;19928;-70
2022/08/28 01:43:11;;;;;;;;;;;;;;;19.45;67.67;100702.88;5093241;28;20429;-70
2022/08/28 01:46:16;;;;;;;;;;;;;;;19.46;67.91;100706.38;5092937;28;19938;-70
2022/08/28 01:49:20;;;;;;;;;;;;;;;19.49;67.46;100706.94;5093062;28;19923;-70
2022/08/28 01:52:25;;;;;;;;;;;;;;;19.44;67.90;100708.34;5093112;28;20298;-70
2022/08/28 01:55:28;;;;;;;;;;;;;;;19.41;68.27;100712.09;5091928;28;20061;-70
2022/08/28 01:58:31;;;;;;;;;;;;;;;19.44;68.39;100713.66;5092712;28;19931;-70
2022/08/28 02:01:34;;;;;;;;;;;;;;;19.39;67.84;100710.53;5092761;28;19923;-70
2022/08/28 02:04:37;;;;;;;;;;;;;;;19.39;67.57;100711.38;5092748;28;20012;-71
2022/08/28 02:07:40;;;;;;;;;;;;;;;19.40;67.64;100712.22;5092840;28;19923;-71
2022/08/28 02:10:43;;;;;;;;;;;;;;;19.39;67.68;100710.53;5092549;28;19935;-71
2022/08/28 02:13:47;;;;;;;;;;;;;;;19.39;67.86;100706.06;5092833;28;19939;-70
2022/08/28 02:16:50;;;;;;;;;;;;;;;19.45;67.87;100716.16;5092624;28;19990;-70
2022/08/28 02:19:53;;;;;;;;;;;;;;;19.50;67.99;100719.25;5092942;28;19927;-70
2022/08/28 02:22:56;;;;;;;;;;;;;;;19.46;67.56;100711.69;5091445;28;20004;-70
2022/08/28 02:26:00;;;;;;;;;;;;;;;19.41;67.53;100713.91;5091674;28;19923;-71
2022/08/28 02:29:04;;;;;;;;;;;;;;;19.39;67.82;100711.38;5092407;28;19985;-70
2022/08/28 02:32:07;;;;;;;;;;;;;;;19.37;68.14;100713.34;5092712;28;20045;-70
2022/08/28 02:35:12;;;;;;;;;;;;;;;19.39;68.12;100710.53;5091340;28;19931;-70
2022/08/28 02:38:16;;;;;;;;;;;;;;;19.38;67.75;100714.19;5092248;28;19973;-70
2022/08/28 02:41:19;;;;;;;;;;;;;;;19.38;67.89;100706.22;5092410;28;20477;-70
2022/08/28 02:44:25;;;;;;;;;;;;;;;19.36;68.22;100710.81;5096306;28;19923;-70
2022/08/28 02:47:28;;;;;;;;;;;;;;;19.38;68.27;100716.81;5096414;28;19969;-70
2022/08/28 02:50:32;;;;;;;;;;;;;;;19.30;68.31;100712.16;5096234;28;20313;-70
2022/08/28 02:53:35;;;;;;;;;;;;;;;19.25;68.43;100712.56;5096162;28;20011;-71
2022/08/28 02:56:39;;;;;;;;;;;;;;;19.16;68.99;100707.22;5096136;28;19923;-71
2022/08/28 02:59:43;;;;;;;;;;;;;;;19.19;68.97;100714.91;5096033;28;19927;-70
2022/08/28 03:02:46;;;;;;;;;;;;;;;19.21;68.66;100713.81;5096045;28;19942;-71
2022/08/28 03:05:49;;;;;;;;;;;;;;;19.21;68.45;100716.47;5095846;28;19962;-71
2022/08/28 03:08:52;;;;;;;;;;;;;;;19.16;68.52;100717.81;5095878;28;19939;-71
2022/08/28 03:11:55;;;;;;;;;;;;;;;19.14;68.60;100717.94;5095859;28;19969;-71
2022/08/28 03:14:58;;;;;;;;;;;;;;;19.13;68.50;100716.25;5095835;28;19922;-71
2022/08/28 03:18:01;;;;;;;;;;;;;;;19.08;68.38;100713.19;5095979;28;19927;-70
2022/08/28 03:21:04;;;;;;;;;;;;;;;19.13;68.17;100718.09;5095564;28;19984;-71
2022/08/28 03:24:08;;;;;;;;;;;;;;;19.19;68.27;100712.25;5095546;28;19953;-71
2022/08/28 03:27:11;;;;;;;;;;;;;;;19.25;68.16;100714.38;5095901;28;20417;-71
2022/08/28 03:30:16;;;;;;;;;;;;;;;19.22;67.98;100715.47;5095470;28;19985;-71
2022/08/28 03:33:19;;;;;;;;;;;;;;;19.20;68.09;100711.28;5095416;28;19969;-71
2022/08/28 03:36:25;;;;;;;;;;;;;;;19.18;68.24;100724.69;5094963;28;19926;-70
2022/08/28 03:39:28;;;;;;;;;;;;;;;19.16;68.37;100720.47;4733883;28;10000511;-70
2022/08/28 03:42:32;;;;;;;;;;;;;;;19.12;68.65;100717.25;5072299;28;19931;-71
2022/08/28 03:45:35;;;;;;;;;;;;;;;19.14;68.22;100728.53;5072710;28;19931;-71
2022/08/28 03:48:38;;;;;;;;;;;;;;;19.12;68.56;100719.06;5092632;28;19927;-70
2022/08/28 03:51:42;;;;;;;;;;;;;;;19.04;68.85;100728.47;5069245;28;20649;-70
2022/08/28 03:54:54;;;;;;;;;;;;;;;19.08;69.04;100722.91;5067865;28;20396;-70
2022/08/28 03:57:57;;;;;;;;;;;;;;;19.03;69.17;100718.03;5069183;28;20339;-70
2022/08/28 04:00:59;;;;;;;;;;;;;;;19.06;68.87;100723.06;5078584;28;19923;-70
2022/08/28 04:04:03;;;;;;;;;;;;;;;19.02;69.01;100719.84;5089226;28;20042;-70
2022/08/28 04:07:07;;;;;;;;;;;;;;;18.99;69.04;100721.91;5089319;28;19994;-70
2022/08/28 04:10:10;;;;;;;;;;;;;;;18.98;69.35;100721.03;5089215;28;20390;-70
2022/08/28 04:13:14;;;;;;;;;;;;;;;18.96;69.76;100717.72;5088980;28;19926;-70
2022/08/28 04:16:18;;;;;;;;;;;;;;;18.95;69.87;100717.81;5088988;28;19926;-71
2022/08/28 04:19:21;;;;;;;;;;;;;;;18.95;69.75;100720.47;5087972;28;20452;-71
2022/08/28 04:22:27;;;;;;;;;;;;;;;18.94;69.25;100719.63;5089084;28;19926;-70
2022/08/28 04:25:33;;;;;;;;;;;;;;;18.94;68.84;100726.75;5088737;28;20060;-71
2022/08/28 04:28:36;;;;;;;;;;;;;;;18.79;69.10;100729.72;5088364;28;20556;-71
2022/08/28 04:31:39;;;;;;;;;;;;;;;18.71;69.49;100732.13;5087960;28;19927;-71
2022/08/28 04:34:42;;;;;;;;;;;;;;;18.61;69.89;100741.81;5078778;28;19927;-85
2022/08/28 04:37:45;;;;;;;;;;;;;;;18.44;69.54;100737.06;5068750;28;19927;-88
2022/08/28 04:40:50;;;;;;;;;;;;;;;18.50;70.50;100744.50;5087262;28;19923;-88
2022/08/28 04:43:56;;;;;;;;;;;;;;;18.46;70.75;100743.91;5087712;28;20490;-87
2022/08/28 04:47:04;;;;;;;;;;;;;;;18.44;70.61;100750.28;5087927;28;19926;-86
2022/08/28 04:50:07;;;;;;;;;;;;;;;18.52;70.71;100750.50;5089180;28;19942;-87
2022/08/28 04:53:12;;;;;;;;;;;;;;;18.45;71.23;100754.63;5109324;28;19927;-87
2022/08/28 04:56:17;;;;;;;;;;;;;;;18.53;70.81;100755.66;5105853;28;19968;-88
2022/08/28 04:59:21;;;;;;;;;;;;;;;18.48;70.67;100762.34;5090262;28;19960;-87
2022/08/28 05:02:24;;;;;;;;;;;;;;;18.42;70.58;100763.66;5088334;28;19927;-86
2022/08/28 05:05:30;;;;;;;;;;;;;;;18.47;70.33;100763.28;5088296;28;19993;-88
2022/08/28 05:08:34;;;;;;;;;;;;;;;18.45;70.88;100767.88;5088612;28;20271;-87
2022/08/28 05:11:38;;;;;;;;;;;;;;;18.49;70.90;100774.59;5088270;28;20053;-87
2022/08/28 05:14:40;;;;;;;;;;;;;;;18.46;71.09;100774.84;5087915;28;20330;-87
2022/08/28 05:17:45;;;;;;;;;;;;;;;18.37;71.32;100771.13;5088244;28;20397;-87
2022/08/28 05:20:48;;;;;;;;;;;;;;;18.31;71.66;100769.84;5088032;28;19927;-86
2022/08/28 05:23:55;;;;;;;;;;;;;;;18.32;71.69;100778.63;5088048;28;19927;-85
2022/08/28 05:26:58;;;;;;;;;;;;;;;18.40;71.53;100781.47;5088006;28;19927;-85
2022/08/28 05:30:01;;;;;;;;;;;;;;;18.38;71.87;100783.41;5087528;28;20466;-85
2022/08/28 05:33:08;;;;;;;;;;;;;;;18.34;72.17;100788.09;5087346;28;19986;-86
2022/08/28 05:36:12;;;;;;;;;;;;;;;18.39;72.19;100797.50;5087447;28;19927;-85
2022/08/28 05:39:16;;;;;;;;;;;;;;;18.36;72.15;100796.75;5086352;28;19930;-85
2022/08/28 05:42:19;;;;;;;;;;;;;;;18.36;72.45;100811.81;5087786;28;19923;-86
2022/08/28 05:45:22;;;;;;;;;;;;;;;18.52;71.89;100809.59;5087756;28;20462;-86
2022/08/28 05:48:28;;;;;;;;;;;;;;;18.58;72.05;100808.28;5079245;28;19927;-86
2022/08/28 05:51:34;;;;;;;;;;;;;;;18.50;72.16;100813.34;5069360;28;19927;-86
2022/08/28 05:54:37;;;;;;;;;;;;;;;18.68;71.14;100816.31;5107047;28;19927;-84
2022/08/28 05:57:40;;;;;;;;;;;;;;;18.74;70.60;100815.84;5106225;28;19972;-85
2022/08/28 06:00:45;;;;;;;;;;;;;;;18.77;70.06;100816.44;5105466;28;19969;-87
2022/08/28 06:03:53;;;;;;;;;;;;;;;18.92;69.33;100808.16;4727454;28;9999908;-86
2022/08/28 06:06:57;;;;;;;;;;;;;;;18.99;69.01;100814.66;5065501;28;19974;-85
2022/08/28 06:10:01;;;;;;;;;;;;;;;19.00;69.04;100813.69;5065164;28;20000;-87
2022/08/28 06:13:04;;;;;;;;;;;;;;;18.88;69.46;100809.41;5067284;28;20577;-87
2022/08/28 06:16:08;;;;;;;;;;;;;;;18.91;69.27;100809.16;5088473;28;20295;-85
2022/08/28 06:19:15;;;;;;;;;;;;;;;18.92;69.42;100813.47;5085987;28;19962;-84
2022/08/28 06:22:22;;;;;;;;;;;;;;;18.95;69.10;100798.19;5077382;28;20319;-78
2022/08/28 06:25:27;;;;;;;;;;;;;;;19.02;68.70;100804.66;5074629;28;19986;-76
2022/08/28 06:28:30;;;;;;;;;;;;;;;19.10;68.05;100804.00;5075805;28;20008;-87
2022/08/28 06:31:34;;;;;;;;;;;;;;;19.08;68.24;100816.56;5085622;28;19989;-76
2022/08/28 06:34:37;;;;;;;;;;;;;;;18.98;68.43;100819.09;5075209;28;20537;-77
2022/08/28 06:37:40;;;;;;;;;;;;;;;18.97;69.03;100827.19;5079822;28;19969;-77
2022/08/28 06:40:45;;;;;;;;;;;;;;;18.99;69.04;100819.97;5091184;28;20006;-79
2022/08/28 06:43:48;;;;;;;;;;;;;;;18.95;69.49;100823.81;5091414;28;19996;-81
2022/08/28 06:46:53;;;;;;;;;;;;;;;19.00;68.97;100821.63;5071152;28;19922;-79
2022/08/28 06:49:56;;;;;;;;;;;;;;;19.08;67.32;100827.16;5071451;28;19927;-77
2022/08/28 06:53:00;;;;;;;;;;;;;;;19.16;66.92;100822.03;5072683;28;19997;-76
2022/08/28 06:56:10;;;;;;;;;;;;;;;19.19;66.06;100821.78;5072483;28;20009;-78
2022/08/28 06:59:13;;;;;;;;;;;;;;;19.32;64.99;100818.94;5070790;28;20011;-76
2022/08/28 07:02:17;;;;;;;;;;;;;;;19.36;64.32;100828.31;5073424;28;19978;-77
2022/08/28 07:05:21;;;;;;;;;;;;;;;19.39;63.62;100827.22;5085914;28;19931;-77
2022/08/28 07:08:34;;;;;;;;;;;;;;;19.45;63.11;100826.69;5090061;28;20002;-78
2022/08/28 07:11:37;;;;;;;;;;;;;;;19.41;62.33;100833.25;5090056;28;20295;-81
2022/08/28 07:14:42;;;;;;;;;;;;;;;19.44;62.34;100822.38;5090992;28;20445;-79
2022/08/28 07:17:45;;;;;;;;;;;;;;;19.58;61.96;100824.69;5091934;28;19978;-82
2022/08/28 07:20:57;;;;;;;;;;;;;;;19.60;61.90;100820.09;5091949;28;19946;-80
2022/08/28 07:24:02;;;;;;;;;;;;;;;19.63;61.79;100827.78;5091982;28;19964;-76
2022/08/28 07:27:05;;;;;;;;;;;;;;;19.64;61.47;100821.53;5091535;28;19977;-80
2022/08/28 07:30:11;;;;;;;;;;;;;;;19.73;61.27;100826.06;5091080;28;20463;-77
2022/08/28 07:33:15;;;;;;;;;;;;;;;19.81;60.81;100812.09;5090771;28;20311;-77
2022/08/28 07:36:20;;;;;;;;;;;;;;;19.84;60.72;100816.31;5090500;28;20250;-76
2022/08/28 07:39:22;;;;;;;;;;;;;;;20.01;59.43;100822.84;5090583;28;20352;-79
2022/08/28 07:45:56;;;;;;;;;;;;;;;20.25;58.16;100817.16;5090373;28;19966;-79
2022/08/28 07:49:00;;;;;;;;;;;;;;;20.38;58.19;100820.41;5090674;28;20010;-82
2022/08/28 07:52:04;;;;;;;;;;;;;;;20.55;57.82;100826.91;5090302;28;19938;-79
2022/08/28 07:55:07;;;;;;;;;;;;;;;20.66;57.57;100830.28;5090596;28;19969;-74
2022/08/28 07:58:11;;;;;;;;;;;;;;;20.66;56.91;100824.97;5090827;28;19947;-79
2022/08/28 08:01:16;;;;;;;;;;;;;;;20.76;56.31;100826.81;5090752;28;19965;-78
2022/08/28 08:04:20;;;;;;;;;;;;;;;20.84;56.74;100826.97;5090804;28;19947;-73
2022/08/28 08:07:27;;;;;;;;;;;;;;;20.91;56.42;100825.41;5090147;28;19939;-80
2022/08/28 08:10:30;;;;;;;;;;;;;;;21.18;56.07;100824.69;5089905;28;19915;-71
2022/08/28 08:13:37;;;;;;;;;;;;;;;21.22;54.53;100815.47;5089837;28;19922;-77
2022/08/28 08:16:42;;;;;;;;;;;;;;;21.24;55.36;100817.97;5089957;28;19961;-78
2022/08/28 08:19:45;;;;;;;;;;;;;;;21.26;54.59;100830.16;5086596;28;19994;-71
2022/08/28 08:22:48;;;;;;;;;;;;;;;21.32;54.40;100828.75;5082193;28;19923;-76
2022/08/28 08:26:02;;;;;;;;;;;;;;;21.29;53.96;100842.31;5090234;28;20292;-73
2022/08/28 08:29:06;;;;;;;;;;;;;;;21.12;54.08;100844.72;5090418;28;19938;-73
2022/08/28 08:32:11;;;;;;;;;;;;;;;21.09;54.04;100841.47;5090331;28;20003;-81
2022/08/28 08:35:15;;;;;;;;;;;;;;;21.23;54.03;100842.91;5090239;28;19989;-80
2022/08/28 08:38:19;;;;;;;;;;;;;;;21.34;54.11;100840.06;5089420;28;19943;-75
2022/08/28 08:41:22;;;;;;;;;;;;;;;21.51;54.01;100841.22;5087794;28;19969;-73
2022/08/28 08:44:32;;;;;;;;;;;;;;;21.48;53.89;100839.66;5090050;28;20023;-72
2022/08/28 08:47:41;;;;;;;;;;;;;;;21.63;53.22;100837.38;5087793;28;19927;-80
2022/08/28 08:50:46;;;;;;;;;;;;;;;21.76;53.02;100839.72;5086962;28;19942;-80
2022/08/28 08:53:59;;;;;;;;;;;;;;;21.95;51.65;100837.00;5087808;28;19931;-76
2022/08/28 08:57:03;;;;;;;;;;;;;;;22.03;52.39;100831.78;5086321;28;19923;-78
2022/08/28 09:00:08;;;;;;;;;;;;;;;22.01;52.82;100832.91;5088645;28;20459;-76
2022/08/28 09:03:15;;;;;;;;;;;;;;;21.88;52.11;100833.22;5089625;28;20295;-77
2022/08/28 09:06:31;;;;;;;;;;;;;;;21.92;52.11;100839.09;5088357;28;19966;-80
2022/08/28 09:09:36;;;;;;;;;;;;;;;21.97;51.24;100836.84;5090132;28;19988;-71
2022/08/28 09:12:48;;;;;;;;;;;;;;;22.08;51.03;100831.34;5090668;28;19957;-74
2022/08/28 09:15:51;;;;;;;;;;;;;;;22.13;49.76;100830.91;5089306;28;19977;-73
2022/08/28 09:18:55;;;;;;;;;;;;;;;22.05;50.03;100835.13;5090430;28;19928;-85
2022/08/28 09:22:00;;;;;;;;;;;;;;;21.91;50.49;100835.59;5090796;28;19923;-77
2022/08/28 09:25:04;;;;;;;;;;;;;;;21.62;49.76;100833.03;5090743;28;20001;-74
2022/08/28 09:28:08;;;;;;;;;;;;;;;21.72;49.81;100835.69;5090046;28;19927;-74
2022/08/28 09:31:14;;;;;;;;;;;;;;;21.83;48.64;100835.50;5089626;28;19969;-82
2022/08/28 09:34:19;;;;;;;;;;;;;;;22.02;48.94;100838.09;5090257;28;19922;-79
2022/08/28 09:37:26;;;;;;;;;;;;;;;22.11;47.94;100833.69;5089497;28;19974;-79
2022/08/28 09:43:25;;;;;;;;;;;;;;;21.97;47.87;100837.69;5089087;28;19966;-74
2022/08/28 09:43:54;;;;;;;;;;;;;;;22.27;47.10;100838.41;5089837;28;19923;-82
2022/08/28 09:46:58;;;;;;;;;;;;;;;22.38;47.31;100834.72;5089601;28;20015;-77
2022/08/28 09:50:21;;;;;;;;;;;;;;;22.49;47.99;100829.16;5089509;28;19973;-76
2022/08/28 09:53:27;;;;;;;;;;;;;;;22.61;46.14;100827.13;5087948;28;19927;-76
2022/08/28 09:56:32;;;;;;;;;;;;;;;22.72;46.43;100832.25;5088930;28;19923;-74
2022/08/28 09:59:36;;;;;;;;;;;;;;;22.66;45.82;100827.53;5089248;28;19931;-73
2022/08/28 10:02:49;;;;;;;;;;;;;;;22.12;45.44;100835.38;5089064;28;19938;-82
2022/08/28 10:05:59;;;;;;;;;;;;;;;21.94;46.51;100835.31;5089488;28;19942;-80
2022/08/28 10:09:05;;;;;;;;;;;;;;;21.73;46.78;100830.22;5088940;28;20333;-80
2022/08/28 10:12:20;;;;;;;;;;;;;;;21.90;47.26;100836.59;5068996;28;19974;-80
2022/08/28 10:15:28;;;;;;;;;;;;;;;22.22;46.62;100830.88;5069404;28;19923;-84
2022/08/28 10:18:31;;;;;;;;;;;;;;;22.48;46.15;100819.50;5069079;28;19946;-80
2022/08/28 10:21:38;;;;;;;;;;;;;;;22.56;45.77;100818.75;5068608;28;19923;-80
2022/08/28 10:24:44;;;;;;;;;;;;;;;22.63;45.69;100825.16;5068233;28;19935;-80
2022/08/28 10:27:58;;;;;;;;;;;;;;;22.13;45.09;100820.25;5068174;28;20037;-71
2022/08/28 10:31:11;;;;;;;;;;;;;;;22.63;44.83;100822.50;5066705;28;19922;-79
2022/08/28 10:34:17;;;;;;;;;;;;;;;22.57;44.36;100820.44;5068228;28;19977;-78
2022/08/28 10:37:34;;;;;;;;;;;;;;;22.46;44.59;100826.81;5067593;28;19950;-78
2022/08/28 10:41:07;;;;;;;;;;;;;;;22.56;44.61;100818.75;5069091;28;19927;-80
2022/08/28 10:44:16;;;;;;;;;;;;;;;22.87;43.55;100806.72;5069043;28;19923;-81
2022/08/28 10:47:21;;;;;;;;;;;;;;;23.05;43.87;100805.91;5069080;28;19924;-78
2022/08/28 10:50:33;;;;;;;;;;;;;;;23.10;43.58;100809.81;5068405;28;19927;-79
2022/08/28 10:53:38;;;;;;;;;;;;;;;22.94;42.43;100809.66;5067978;28;20429;-76
2022/08/28 10:56:50;;;;;;;;;;;;;;;23.24;42.58;100805.72;5079252;28;20014;-69
2022/08/28 10:59:53;;;;;;;;;;;;;;;23.07;42.54;100818.13;5068247;28;20368;-68
2022/08/28 11:07:14;;;;;;;;;;;;;;;23.09;43.05;100810.78;5071984;28;19939;-68
2022/08/28 11:10:37;;;;;;;;;;;;;;;23.22;42.50;100807.72;5071928;28;19924;-69
2022/08/28 11:13:58;;;;;;;;;;;;;;;22.88;42.21;100804.91;5072705;28;19923;-69
2022/08/28 11:17:26;;;;;;;;;;;;;;;23.07;43.28;100804.78;5070459;28;20419;-68
2022/08/28 11:20:30;;;;;;;;;;;;;;;23.21;42.17;100811.38;5072446;28;19927;-67
2022/08/28 11:23:42;;;;;;;;;;;;;;;23.25;42.42;100795.91;5070350;28;19970;-67
2022/08/28 11:26:50;;;;;;;;;;;;;;;23.29;41.70;100798.06;5079589;28;20484;-67
2022/08/28 11:29:56;;;;;;;;;;;;;;;23.42;41.55;100803.88;5091694;28;20410;-67
2022/08/28 11:33:00;;;;;;;;;;;;;;;23.32;41.18;100803.09;5091575;28;19927;-68
2022/08/28 11:36:18;;;;;;;;;;;;;;;23.35;40.88;100792.13;5090264;28;19946;-67
2022/08/28 11:39:21;;;;;;;;;;;;;;;23.43;40.38;100800.19;5090374;28;20516;-67
2022/08/28 11:42:25;;;;;;;;;;;;;;;23.31;40.30;100801.44;5090576;28;20410;-67
2022/08/28 11:45:44;;;;;;;;;;;;;;;23.37;39.91;100800.81;5090991;28;19923;-67
2022/08/28 11:48:50;;;;;;;;;;;;;;;23.41;39.49;100799.50;5091427;28;20394;-67
2022/08/28 11:52:12;;;;;;;;;;;;;;;23.83;40.20;100793.41;5091305;28;19962;-68
2022/08/28 11:55:44;;;;;;;;;;;;;;;23.69;37.78;100791.38;5090807;28;20283;-68
2022/08/28 11:59:06;;;;;;;;;;;;;;;23.77;37.55;100791.41;5064329;28;19977;-68
2022/08/28 12:02:42;;;;;;;;;;;;;;;23.81;38.17;100798.09;5086269;28;19942;-68
2022/08/28 12:05:48;;;;;;;;;;;;;;;24.08;37.45;100788.19;5077728;28;20316;-68
2022/08/28 12:08:54;;;;;;;;;;;;;;;23.95;36.76;100785.13;5090338;28;19923;-68
2022/08/28 12:12:00;;;;;;;;;;;;;;;24.22;36.14;100787.59;5090331;28;20275;-67
2022/08/28 12:15:06;;;;;;;;;;;;;;;24.47;36.21;100777.78;5089708;28;19923;-68
2022/08/28 12:18:09;;;;;;;;;;;;;;;24.50;35.06;100788.16;5090458;28;19927;-68
2022/08/28 12:21:18;;;;;;;;;;;;;;;24.35;35.45;100785.28;5089947;28;20005;-68
2022/08/28 12:24:22;;;;;;;;;;;;;;;24.45;35.62;100779.81;5089962;28;19939;-68
2022/08/28 12:27:26;;;;;;;;;;;;;;;25.00;35.52;100783.69;5089725;28;19946;-67
2022/08/28 12:30:43;;;;;;;;;;;;;;;25.47;34.54;100775.81;5089299;28;20288;-64
2022/08/28 12:33:46;;;;;;;;;;;;;;;25.61;33.41;100770.75;5089950;28;20020;-64
2022/08/28 12:36:57;;;;;;;;;;;;;;;25.63;32.77;100780.28;5088817;28;20320;-63
2022/08/28 12:40:08;;;;;;;;;;;;;;;25.63;31.85;100774.09;5088946;28;19970;-63
2022/08/28 12:43:12;;;;;;;;;;;;;;;26.15;31.91;100777.06;5089285;28;19927;-63
2022/08/28 12:46:17;;;;;;;;;;;;;;;26.48;30.43;100790.28;5089165;28;19923;-63
2022/08/28 12:49:29;;;;;;;;;;;;;;;26.78;30.19;100774.34;5088827;28;19923;-63
2022/08/28 12:52:32;;;;;;;;;;;;;;;26.94;29.74;100758.09;5089161;28;20008;-62
2022/08/28 12:55:36;;;;;;;;;;;;;;;27.24;28.88;100766.25;5089313;28;20294;-62
2022/08/28 12:58:44;;;;;;;;;;;;;;;27.54;29.05;100773.31;5090575;28;20019;-63
2022/08/28 13:02:12;;;;;;;;;;;;;;;27.51;31.13;100770.16;5090016;28;19969;-62
2022/08/28 13:05:27;;;;;;;;;;;;;;;26.97;28.97;100770.34;5089014;28;19924;-64
2022/08/28 13:08:33;;;;;;;;;;;;;;;26.86;30.17;100755.47;5090142;28;19922;-62
2022/08/28 13:11:37;;;;;;;;;;;;;;;27.22;28.91;100766.44;5070238;28;19982;-62
2022/08/28 13:14:44;;;;;;;;;;;;;;;27.92;29.74;100746.34;5069550;28;20642;-64
2022/08/28 13:17:49;;;;;;;;;;;;;;;27.99;28.92;100749.94;5069991;28;19924;-63
2022/08/28 13:21:09;;;;;;;;;;;;;;;27.81;28.09;100744.97;5070370;28;19974;-64
2022/08/28 13:24:20;;;;;;;;;;;;;;;28.23;28.19;100742.53;5070269;28;19966;-62
2022/08/28 13:27:23;;;;;;;;;;;;;;;29.67;29.08;100740.44;5070277;28;19962;-62
2022/08/28 13:30:32;;;;;;;;;;;;;;;30.27;25.76;100738.81;5070088;28;19926;-63
2022/08/28 13:33:35;;;;;;;;;;;;;;;31.55;23.82;100724.25;5069999;28;19924;-63
2022/08/28 13:36:42;;;;;;;;;;;;;;;30.90;24.76;100734.94;5069612;28;19982;-64
2022/08/28 13:39:45;;;;;;;;;;;;;;;32.12;22.96;100727.94;5069902;28;19927;-64
2022/08/28 13:42:50;;;;;;;;;;;;;;;33.10;21.09;100722.03;5069382;28;20342;-64
2022/08/28 13:45:54;;;;;;;;;;;;;;;35.02;18.96;100709.56;5069677;28;19966;-65
2022/08/28 13:48:57;;;;;;;;;;;;;;;33.04;20.62;100715.63;5069882;28;19939;-64
2022/08/28 13:52:05;;;;;;;;;;;;;;;36.13;17.72;100710.28;5068774;28;19982;-65
2022/08/28 13:55:09;;;;;;;;;;;;;;;40.01;14.08;100696.16;5086146;28;19927;-67
2022/08/28 13:58:13;;;;;;;;;;;;;;;40.75;14.00;100701.13;5086154;28;19970;-69
2022/08/28 14:01:19;;;;;;;;;;;;;;;42.08;12.29;100706.03;5087362;28;19969;-70
2022/08/28 14:04:22;;;;;;;;;;;;;;;41.82;12.85;100697.16;5087336;28;20452;-68
2022/08/28 14:07:28;;;;;;;;;;;;;;;42.10;11.83;100695.59;5087962;28;19923;-68
2022/08/28 14:10:42;;;;;;;;;;;;;;;41.56;12.76;100694.56;5088500;28;19923;-65
2022/08/28 14:13:57;;;;;;;;;;;;;;;40.43;13.52;100696.75;5088043;28;20406;-66
2022/08/28 14:17:02;;;;;;;;;;;;;;;39.62;13.97;100704.81;5085672;28;19923;-65
2022/08/28 14:20:31;;;;;;;;;;;;;;;37.88;15.51;100704.38;5084164;28;19986;-64
2022/08/28 14:23:37;;;;;;;;;;;;;;;38.71;14.98;100692.31;5088417;28;19939;-64
2022/08/28 14:26:41;;;;;;;;;;;;;;;36.86;16.15;100705.78;5089544;28;19923;-62
2022/08/28 14:29:48;;;;;;;;;;;;;;;36.06;17.38;100701.44;5089750;28;20334;-64
2022/08/28 14:32:55;;;;;;;;;;;;;;;37.91;15.64;100692.97;5089130;28;19926;-68
2022/08/28 14:36:03;;;;;;;;;;;;;;;40.96;13.26;100690.09;5088593;28;20268;-64
2022/08/28 14:39:08;;;;;;;;;;;;;;;39.35;14.06;100697.63;5090915;28;20440;-66
2022/08/28 14:42:11;;;;;;;;;;;;;;;40.58;13.28;100692.34;5092770;28;19942;-65
2022/08/28 14:45:42;;;;;;;;;;;;;;;38.21;14.75;100685.31;5092378;28;19923;-64
2022/08/28 14:48:45;;;;;;;;;;;;;;;38.51;15.24;100695.69;5093010;28;19923;-65
2022/08/28 14:51:48;;;;;;;;;;;;;;;34.94;17.50;100708.88;5093101;28;19923;-67
2022/08/28 14:54:51;;;;;;;;;;;;;;;37.73;16.06;100685.13;5093222;28;19919;-68
2022/08/28 14:57:54;;;;;;;;;;;;;;;39.26;14.42;100685.50;5092713;28;19927;-68
2022/08/28 15:00:58;;;;;;;;;;;;;;;41.31;13.23;100675.44;5092474;28;19943;-64
2022/08/28 15:04:03;;;;;;;;;;;;;;;40.03;13.81;100683.03;5092580;28;19924;-67
2022/08/28 15:07:09;;;;;;;;;;;;;;;37.65;15.14;100689.13;5092840;28;20018;-72
2022/08/28 15:10:13;;;;;;;;;;;;;;;37.50;14.97;100688.13;5092886;28;20394;-69
2022/08/28 15:13:16;;;;;;;;;;;;;;;38.72;14.10;100685.75;5092458;28;20351;-71
2022/08/28 15:16:25;;;;;;;;;;;;;;;42.75;12.02;100669.78;5092437;28;19927;-66
2022/08/28 15:19:29;;;;;;;;;;;;;;;43.94;11.87;100670.69;5092472;28;19970;-69
2022/08/28 15:22:33;;;;;;;;;;;;;;;41.50;11.37;100676.47;5091731;28;19974;-69
2022/08/28 15:25:35;;;;;;;;;;;;;;;36.15;15.20;100685.53;5091693;28;19926;-69
2022/08/28 15:28:39;;;;;;;;;;;;;;;34.30;17.02;100688.00;5090952;28;19923;-73
2022/08/28 15:31:44;;;;;;;;;;;;;;;35.37;17.12;100685.09;5092670;28;20434;-70
2022/08/28 15:34:47;;;;;;;;;;;;;;;34.36;17.06;100682.47;5091656;28;20018;-69
2022/08/28 15:37:52;;;;;;;;;;;;;;;35.53;15.86;100680.81;5092641;28;19966;-71
2022/08/28 15:44:18;;;;;;;;;;;;;;;33.43;17.93;100675.59;5091795;28;19924;-69
2022/08/28 15:47:25;;;;;;;;;;;;;;;35.77;16.67;100670.66;5091277;28;20338;-67
2022/08/28 15:50:28;;;;;;;;;;;;;;;36.55;15.48;100669.88;5091244;28;19931;-69
2022/08/28 15:53:32;;;;;;;;;;;;;;;34.84;16.68;100676.03;5092300;28;19923;-68
2022/08/28 15:56:36;;;;;;;;;;;;;;;33.58;18.12;100683.38;5092165;28;19927;-69
2022/08/28 15:59:39;;;;;;;;;;;;;;;34.83;17.22;100682.53;5091537;28;19927;-70
2022/08/28 16:02:42;;;;;;;;;;;;;;;35.29;16.70;100680.00;5091775;28;19965;-70
2022/08/28 16:05:45;;;;;;;;;;;;;;;30.99;20.62;100685.09;5092219;28;19923;-69